sensor_id;sensor_type;location;lat;lon;timestamp;pressure;altitude;pressure_sealevel;temperature;humidity
13968;BME280;39536;52.198;9.920;2023-04-20T00:00:57;101205.34;;;7.46;100.00
13968;BME280;39536;52.198;9.920;2023-04-20T00:03:23;101201.97;;;7.35;100.00
13968;BME280;39536;52.198;9.920;2023-04-20T00:05:53;101207.97;;;7.40;100.00
13968;BME280;39536;52.198;9.920;2023-04-20T00:08:19;101201.13;;;7.36;100.00
13968;BME280;39536;52.198;9.920;2023-04-20T00:10:46;101194.16;;;7.43;100.00
13968;BME280;39536;52.198;9.920;2023-04-20T00:13:12;101193.16;;;7.57;100.00
13968;BME280;39536;52.198;9.920;2023-04-20T00:15:39;101181.06;;;7.55;100.00
13968;BME280;39536;52.198;9.920;2023-04-20T00:18:05;101175.78;;;7.62;100.00
13968;BME280;39536;52.198;9.920;2023-04-20T00:20:32;101179.25;;;7.64;100.00
13968;BME280;39536;52.198;9.920;2023-04-20T00:23:01;101179.34;;;7.55;100.00
13968;BME280;39536;52.198;9.920;2023-04-20T00:25:28;101174.13;;;7.57;100.00
13968;BME280;39536;52.198;9.920;2023-04-20T00:27:54;101172.34;;;7.63;100.00
13968;BME280;39536;52.198;9.920;2023-04-20T00:30:21;101171.50;;;7.61;100.00
13968;BME280;39536;52.198;9.920;2023-04-20T00:32:48;101175.78;;;7.62;100.00
13968;BME280;39536;52.198;9.920;2023-04-20T00:35:15;101169.81;;;7.56;100.00
13968;BME280;39536;52.198;9.920;2023-04-20T00:37:41;101174.31;;;7.37;100.00
13968;BME280;39536;52.198;9.920;2023-04-20T00:40:10;101171.75;;;7.34;100.00
13968;BME280;39536;52.198;9.920;2023-04-20T00:42:36;101168.38;;;7.24;100.00
13968;BME280;39536;52.198;9.920;2023-04-20T00:45:05;101177.84;;;7.30;100.00
13968;BME280;39536;52.198;9.920;2023-04-20T00:47:32;101164.91;;;7.25;100.00
13968;BME280;39536;52.198;9.920;2023-04-20T00:49:59;101162.31;;;7.25;100.00
13968;BME280;39536;52.198;9.920;2023-04-20T00:52:26;101167.53;;;7.24;100.00
13968;BME280;39536;52.198;9.920;2023-04-20T00:54:52;101153.81;;;7.12;100.00
13968;BME280;39536;52.198;9.920;2023-04-20T00:57:21;101157.16;;;7.22;100.00
13968;BME280;39536;52.198;9.920;2023-04-20T00:59:48;101155.34;;;7.32;100.00
13968;BME280;39536;52.198;9.920;2023-04-20T01:02:15;101159.75;;;7.24;100.00
13968;BME280;39536;52.198;9.920;2023-04-20T01:04:42;101151.94;;;7.30;100.00
13968;BME280;39536;52.198;9.920;2023-04-20T01:07:09;101141.69;;;7.17;100.00
13968;BME280;39536;52.198;9.920;2023-04-20T01:09:36;101135.59;;;7.18;100.00
13968;BME280;39536;52.198;9.920;2023-04-20T01:12:04;101135.63;;;7.17;100.00
13968;BME280;39536;52.198;9.920;2023-04-20T01:14:32;101126.03;;;7.27;100.00
13968;BME280;39536;52.198;9.920;2023-04-20T01:16:58;101122.56;;;7.29;100.00
13968;BME280;39536;52.198;9.920;2023-04-20T01:19:25;101121.72;;;7.27;100.00
13968;BME280;39536;52.198;9.920;2023-04-20T01:21:51;101120.00;;;7.26;100.00
13968;BME280;39536;52.198;9.920;2023-04-20T01:24:19;101119.97;;;7.29;100.00
13968;BME280;39536;52.198;9.920;2023-04-20T01:26:46;101107.91;;;7.25;100.00
13968;BME280;39536;52.198;9.920;2023-04-20T01:29:12;101104.44;;;7.28;100.00
13968;BME280;39536;52.198;9.920;2023-04-20T01:31:39;101107.06;;;7.26;100.00
13968;BME280;39536;52.198;9.920;2023-04-20T01:34:06;101107.06;;;7.25;100.00
13968;BME280;39536;52.198;9.920;2023-04-20T01:36:32;101107.91;;;7.25;100.00
13968;BME280;39536;52.198;9.920;2023-04-20T01:39:00;101092.38;;;7.22;100.00
13968;BME280;39536;52.198;9.920;2023-04-20T01:41:27;101092.38;;;7.22;100.00
13968;BME280;39536;52.198;9.920;2023-04-20T01:43:54;101093.25;;;7.23;100.00
13968;BME280;39536;52.198;9.920;2023-04-20T01:46:21;101092.44;;;7.16;100.00
13968;BME280;39536;52.198;9.920;2023-04-20T01:48:47;101084.63;;;7.24;100.00
13968;BME280;39536;52.198;9.920;2023-04-20T01:51:14;101091.66;;;7.11;100.00
13968;BME280;39536;52.198;9.920;2023-04-20T01:53:40;101090.75;;;7.16;100.00
13968;BME280;39536;52.198;9.920;2023-04-20T01:56:07;101089.84;;;7.21;100.00
13968;BME280;39536;52.198;9.920;2023-04-20T01:58:35;101083.75;;;7.25;100.00
13968;BME280;39536;52.198;9.920;2023-04-20T02:01:01;101089.72;;;7.33;100.00
13968;BME280;39536;52.198;9.920;2023-04-20T02:03:28;101079.28;;;7.37;100.00
13968;BME280;39536;52.198;9.920;2023-04-20T02:05:55;101081.84;;;7.40;100.00
13968;BME280;39536;52.198;9.920;2023-04-20T02:08:21;101082.81;;;7.30;100.00
13968;BME280;39536;52.198;9.920;2023-04-20T02:10:48;101084.56;;;7.28;100.00
13968;BME280;39536;52.198;9.920;2023-04-20T02:13:14;101081.97;;;7.28;100.00
13968;BME280;39536;52.198;9.920;2023-04-20T02:15:42;101073.41;;;7.23;100.00
13968;BME280;39536;52.198;9.920;2023-04-20T02:18:09;101082.06;;;7.21;100.00
13968;BME280;39536;52.198;9.920;2023-04-20T02:20:35;101075.09;;;7.23;100.00
13968;BME280;39536;52.198;9.920;2023-04-20T02:23:02;101079.41;;;7.27;100.00
13968;BME280;39536;52.198;9.920;2023-04-20T02:25:28;101072.47;;;7.26;100.00
13968;BME280;39536;52.198;9.920;2023-04-20T02:27:55;101071.72;;;7.17;100.00
13968;BME280;39536;52.198;9.920;2023-04-20T02:30:21;101075.09;;;7.24;100.00
13968;BME280;39536;52.198;9.920;2023-04-20T02:32:49;101070.00;;;7.18;100.00
13968;BME280;39536;52.198;9.920;2023-04-20T02:35:16;101068.25;;;7.20;100.00
13968;BME280;39536;52.198;9.920;2023-04-20T02:37:42;101057.84;;;7.22;100.00
13968;BME280;39536;52.198;9.920;2023-04-20T02:40:10;101061.47;;;7.05;100.00
13968;BME280;39536;52.198;9.920;2023-04-20T02:42:37;101060.72;;;6.96;100.00
13968;BME280;39536;52.198;9.920;2023-04-20T02:47:43;101063.16;;;7.09;100.00
13968;BME280;39536;52.198;9.920;2023-04-20T02:50:13;101062.16;;;7.24;100.00
13968;BME280;39536;52.198;9.920;2023-04-20T02:52:40;101065.69;;;7.15;100.00
13968;BME280;39536;52.198;9.920;2023-04-20T02:55:07;101054.38;;;7.23;100.00
13968;BME280;39536;52.198;9.920;2023-04-20T02:57:34;101059.56;;;7.23;100.00
13968;BME280;39536;52.198;9.920;2023-04-20T03:00:00;101062.13;;;7.26;100.00
13968;BME280;39536;52.198;9.920;2023-04-20T03:02:27;101058.66;;;7.30;100.00
13968;BME280;39536;52.198;9.920;2023-04-20T03:04:53;101054.34;;;7.26;100.00
13968;BME280;39536;52.198;9.920;2023-04-20T03:07:21;101051.16;;;7.02;100.00
13968;BME280;39536;52.198;9.920;2023-04-20T03:09:48;101055.28;;;7.18;100.00
13968;BME280;39536;52.198;9.920;2023-04-20T03:12:14;101057.81;;;7.26;100.00
13968;BME280;39536;52.198;9.920;2023-04-20T03:14:42;101050.91;;;7.25;100.00
13968;BME280;39536;52.198;9.920;2023-04-20T03:17:09;101057.84;;;7.23;100.00
13968;BME280;39536;52.198;9.920;2023-04-20T03:19:35;101052.78;;;7.14;100.00
13968;BME280;39536;52.198;9.920;2023-04-20T03:22:02;101056.97;;;7.23;100.00
13968;BME280;39536;52.198;9.920;2023-04-20T03:24:30;101062.19;;;7.21;100.00
13968;BME280;39536;52.198;9.920;2023-04-20T03:26:56;101059.47;;;7.32;100.00
13968;BME280;39536;52.198;9.920;2023-04-20T03:29:23;101052.53;;;7.35;100.00
13968;BME280;39536;52.198;9.920;2023-04-20T03:31:50;101056.88;;;7.32;100.00
13968;BME280;39536;52.198;9.920;2023-04-20T03:34:16;101048.22;;;7.36;100.00
13968;BME280;39536;52.198;9.920;2023-04-20T03:36:43;101044.72;;;7.38;100.00
13968;BME280;39536;52.198;9.920;2023-04-20T03:39:09;101049.00;;;7.41;100.00
13968;BME280;39536;52.198;9.920;2023-04-20T03:41:37;101046.34;;;7.47;100.00
13968;BME280;39536;52.198;9.920;2023-04-20T03:44:04;101056.84;;;7.35;100.00
13968;BME280;39536;52.198;9.920;2023-04-20T03:46:31;101047.38;;;7.35;100.00
13968;BME280;39536;52.198;9.920;2023-04-20T03:48:57;101048.97;;;7.44;100.00
13968;BME280;39536;52.198;9.920;2023-04-20T03:51:24;101052.69;;;7.22;100.00
13968;BME280;39536;52.198;9.920;2023-04-20T03:53:51;101059.69;;;7.13;100.00
13968;BME280;39536;52.198;9.920;2023-04-20T03:56:17;101057.94;;;7.12;100.00
13968;BME280;39536;52.198;9.920;2023-04-20T03:58:45;101066.63;;;7.08;100.00
13968;BME280;39536;52.198;9.920;2023-04-20T04:01:12;101059.75;;;7.06;100.00
13968;BME280;39536;52.198;9.920;2023-04-20T04:03:40;101063.97;;;7.14;100.00
13968;BME280;39536;52.198;9.920;2023-04-20T04:06:06;101069.97;;;7.21;100.00
13968;BME280;39536;52.198;9.920;2023-04-20T04:08:33;101068.25;;;7.20;100.00
13968;BME280;39536;52.198;9.920;2023-04-20T04:10:59;101066.56;;;7.14;100.00
13968;BME280;39536;52.198;9.920;2023-04-20T04:13:26;101068.25;;;7.20;100.00
13968;BME280;39536;52.198;9.920;2023-04-20T04:15:54;101062.25;;;7.16;100.00
13968;BME280;39536;52.198;9.920;2023-04-20T04:18:21;101066.59;;;7.10;100.00
13968;BME280;39536;52.198;9.920;2023-04-20T04:20:48;101058.84;;;7.11;100.00
13968;BME280;39536;52.198;9.920;2023-04-20T04:23:14;101068.47;;;6.96;100.00
13968;BME280;39536;52.198;9.920;2023-04-20T04:25:41;101067.59;;;6.98;100.00
13968;BME280;39536;52.198;9.920;2023-04-20T04:28:07;101064.22;;;6.90;100.00
13968;BME280;39536;52.198;9.920;2023-04-20T04:30:34;101077.13;;;6.93;100.00
13968;BME280;39536;52.198;9.920;2023-04-20T04:33:02;101060.75;;;6.91;100.00
13968;BME280;39536;52.198;9.920;2023-04-20T04:35:29;101065.81;;;7.03;100.00
13968;BME280;39536;52.198;9.920;2023-04-20T04:37:57;101060.47;;;7.18;100.00
13968;BME280;39536;52.198;9.920;2023-04-20T04:40:24;101065.66;;;7.20;100.00
13968;BME280;39536;52.198;9.920;2023-04-20T04:42:50;101062.38;;;7.03;100.00
13968;BME280;39536;52.198;9.920;2023-04-20T04:45:18;101062.34;;;7.06;100.00
13968;BME280;39536;52.198;9.920;2023-04-20T04:47:44;101062.34;;;7.07;100.00
13968;BME280;39536;52.198;9.920;2023-04-20T04:50:12;101056.22;;;7.14;100.00
13968;BME280;39536;52.198;9.920;2023-04-20T04:52:39;101056.22;;;7.13;100.00
13968;BME280;39536;52.198;9.920;2023-04-20T04:55:06;101050.09;;;7.23;100.00
13968;BME280;39536;52.198;9.920;2023-04-20T04:57:33;101056.97;;;7.23;100.00
13968;BME280;39536;52.198;9.920;2023-04-20T05:00:00;101055.19;;;7.29;100.00
13968;BME280;39536;52.198;9.920;2023-04-20T05:02:26;101055.25;;;7.23;100.00
13968;BME280;39536;52.198;9.920;2023-04-20T05:04:53;101066.59;;;7.11;100.00
13968;BME280;39536;52.198;9.920;2023-04-20T05:07:21;101064.97;;;7.04;100.00
13968;BME280;39536;52.198;9.920;2023-04-20T05:09:49;101071.00;;;7.03;100.00
13968;BME280;39536;52.198;9.920;2023-04-20T05:12:15;101064.88;;;7.13;100.00
13968;BME280;39536;52.198;9.920;2023-04-20T05:14:42;101074.25;;;7.24;100.00
13968;BME280;39536;52.198;9.920;2023-04-20T05:17:09;101074.41;;;7.07;100.00
13968;BME280;39536;52.198;9.920;2023-04-20T05:19:35;101078.75;;;7.05;100.00
13968;BME280;39536;52.198;9.920;2023-04-20T05:22:03;101076.09;;;7.14;100.00
13968;BME280;39536;52.198;9.920;2023-04-20T05:24:32;101073.53;;;7.09;100.00
13968;BME280;39536;52.198;9.920;2023-04-20T05:26:58;101075.34;;;7.00;100.00
13968;BME280;39536;52.198;9.920;2023-04-20T05:29:25;101082.28;;;6.96;100.00
13968;BME280;39536;52.198;9.920;2023-04-20T05:31:52;101079.69;;;6.96;100.00
13968;BME280;39536;52.198;9.920;2023-04-20T05:34:19;101079.63;;;7.01;100.00
13968;BME280;39536;52.198;9.920;2023-04-20T05:36:45;101083.88;;;7.09;100.00
13968;BME280;39536;52.198;9.920;2023-04-20T05:39:12;101083.78;;;7.23;100.00
13968;BME280;39536;52.198;9.920;2023-04-20T05:41:40;101091.53;;;7.22;100.00
13968;BME280;39536;52.198;9.920;2023-04-20T05:44:07;101089.03;;;7.14;100.00
13968;BME280;39536;52.198;9.920;2023-04-20T05:46:33;101096.69;;;7.25;100.00
13968;BME280;39536;52.198;9.920;2023-04-20T05:49:00;101093.13;;;7.36;100.00
13968;BME280;39536;52.198;9.920;2023-04-20T05:51:27;101095.69;;;7.38;100.00
13968;BME280;39536;52.198;9.920;2023-04-20T05:53:57;101095.78;;;7.29;100.00
13968;BME280;39536;52.198;9.920;2023-04-20T05:56:24;101100.13;;;7.25;100.00
13968;BME280;39536;52.198;9.920;2023-04-20T05:58:52;101094.97;;;7.22;100.00
13968;BME280;39536;52.198;9.920;2023-04-20T06:01:19;101106.97;;;7.34;100.00
13968;BME280;39536;52.198;9.920;2023-04-20T06:03:46;101098.19;;;7.47;100.00
13968;BME280;39536;52.198;9.920;2023-04-20T06:06:13;101108.53;;;7.47;100.00
13968;BME280;39536;52.198;9.920;2023-04-20T06:08:40;101107.66;;;7.50;100.00
13968;BME280;39536;52.198;9.920;2023-04-20T06:11:07;101100.75;;;7.50;100.00
13968;BME280;39536;52.198;9.920;2023-04-20T06:13:33;101106.84;;;7.48;100.00
13968;BME280;39536;52.198;9.920;2023-04-20T06:16:01;101110.47;;;7.28;100.00
13968;BME280;39536;52.198;9.920;2023-04-20T06:18:28;101107.78;;;7.39;100.00
13968;BME280;39536;52.198;9.920;2023-04-20T06:20:54;101106.94;;;7.38;100.00
13968;BME280;39536;52.198;9.920;2023-04-20T06:23:21;101113.66;;;7.53;100.00
13968;BME280;39536;52.198;9.920;2023-04-20T06:25:48;101099.66;;;7.73;100.00
13968;BME280;39536;52.198;9.920;2023-04-20T06:28:14;101096.06;;;7.83;100.00
13968;BME280;39536;52.198;9.920;2023-04-20T06:30:41;101102.03;;;7.88;100.00
13968;BME280;39536;52.198;9.920;2023-04-20T06:33:09;101092.31;;;8.05;100.00
13968;BME280;39536;52.198;9.920;2023-04-20T06:35:38;101101.59;;;8.22;100.00
13968;BME280;39536;52.198;9.920;2023-04-20T06:38:05;101100.97;;;8.03;100.00
13968;BME280;39536;52.198;9.920;2023-04-20T06:40:31;101102.94;;;7.84;100.00
13968;BME280;39536;52.198;9.920;2023-04-20T06:42:58;101102.13;;;7.82;100.00
13968;BME280;39536;52.198;9.920;2023-04-20T06:45:25;101098.63;;;7.86;100.00
13968;BME280;39536;52.198;9.920;2023-04-20T06:47:51;101096.81;;;7.91;100.00
13968;BME280;39536;52.198;9.920;2023-04-20T06:50:19;101096.00;;;7.86;100.00
13968;BME280;39536;52.198;9.920;2023-04-20T06:52:46;101093.50;;;7.80;100.00
13968;BME280;39536;52.198;9.920;2023-04-20T06:55:13;101103.84;;;7.83;100.00
13968;BME280;39536;52.198;9.920;2023-04-20T06:57:39;101101.22;;;7.86;100.00
13968;BME280;39536;52.198;9.920;2023-04-20T07:00:09;101096.19;;;7.69;100.00
13968;BME280;39536;52.198;9.920;2023-04-20T07:02:43;101090.22;;;7.64;100.00
13968;BME280;39536;52.198;9.920;2023-04-20T07:05:10;101099.00;;;7.52;100.00
13968;BME280;39536;52.198;9.920;2023-04-20T07:07:38;101094.63;;;7.56;100.00
13968;BME280;39536;52.198;9.920;2023-04-20T07:10:06;101091.13;;;7.61;100.00
13968;BME280;39536;52.198;9.920;2023-04-20T07:12:33;101090.94;;;7.77;100.00
13968;BME280;39536;52.198;9.920;2023-04-20T07:15:01;101088.13;;;7.95;100.00
13968;BME280;39536;52.198;9.920;2023-04-20T07:17:28;101092.47;;;7.93;100.00
13968;BME280;39536;52.198;9.920;2023-04-20T07:19:54;101099.44;;;7.88;100.00
13968;BME280;39536;52.198;9.920;2023-04-20T07:22:22;101107.16;;;7.93;100.00
13968;BME280;39536;52.198;9.920;2023-04-20T07:24:50;101109.81;;;7.90;100.00
13968;BME280;39536;52.198;9.920;2023-04-20T07:27:16;101109.03;;;7.81;100.00
13968;BME280;39536;52.198;9.920;2023-04-20T07:29:43;101099.13;;;8.14;100.00
13968;BME280;39536;52.198;9.920;2023-04-20T07:32:10;101097.03;;;8.42;100.00
13968;BME280;39536;52.198;9.920;2023-04-20T07:34:36;101105.66;;;8.44;100.00
13968;BME280;39536;52.198;9.920;2023-04-20T07:37:03;101103.16;;;8.38;100.00
13968;BME280;39536;52.198;9.920;2023-04-20T07:39:29;101097.13;;;8.31;100.00
13968;BME280;39536;52.198;9.920;2023-04-20T07:41:57;101104.00;;;8.39;100.00
13968;BME280;39536;52.198;9.920;2023-04-20T07:44:24;101109.94;;;8.45;100.00
13968;BME280;39536;52.198;9.920;2023-04-20T07:46:51;101113.28;;;8.55;100.00
13968;BME280;39536;52.198;9.920;2023-04-20T07:49:18;101113.28;;;8.55;100.00
13968;BME280;39536;52.198;9.920;2023-04-20T07:51:45;101114.94;;;8.59;100.00
13968;BME280;39536;52.198;9.920;2023-04-20T07:54:13;101123.28;;;8.78;100.00
13968;BME280;39536;52.198;9.920;2023-04-20T07:56:40;101122.44;;;8.79;100.00
13968;BME280;39536;52.198;9.920;2023-04-20T07:59:08;101123.63;;;8.56;100.00
13968;BME280;39536;52.198;9.920;2023-04-20T08:01:35;101115.09;;;8.48;100.00
13968;BME280;39536;52.198;9.920;2023-04-20T08:04:02;101114.34;;;8.40;100.00
13968;BME280;39536;52.198;9.920;2023-04-20T08:06:28;101123.03;;;8.36;100.00
13968;BME280;39536;52.198;9.920;2023-04-20T08:08:56;101122.03;;;8.48;100.00
13968;BME280;39536;52.198;9.920;2023-04-20T08:11:22;101122.13;;;8.42;100.00
13968;BME280;39536;52.198;9.920;2023-04-20T08:13:49;101129.25;;;8.24;100.00
13968;BME280;39536;52.198;9.920;2023-04-20T08:16:17;101124.97;;;8.19;100.00
13968;BME280;39536;52.198;9.920;2023-04-20T08:18:44;101118.13;;;8.15;100.00
13968;BME280;39536;52.198;9.920;2023-04-20T08:21:11;101129.19;;;8.27;100.00
13968;BME280;39536;52.198;9.920;2023-04-20T08:23:37;101116.22;;;8.27;100.00
13968;BME280;39536;52.198;9.920;2023-04-20T08:26:04;101122.97;;;8.41;100.00
13968;BME280;39536;52.198;9.920;2023-04-20T08:28:31;101120.31;;;8.47;100.00
13968;BME280;39536;52.198;9.920;2023-04-20T08:30:58;101128.56;;;8.72;100.00
13968;BME280;39536;52.198;9.920;2023-04-20T08:33:26;101129.47;;;8.72;100.00
13968;BME280;39536;52.198;9.920;2023-04-20T08:35:52;101136.88;;;8.94;100.00
13968;BME280;39536;52.198;9.920;2023-04-20T08:38:19;101135.22;;;8.91;100.00
13968;BME280;39536;52.198;9.920;2023-04-20T08:40:46;101133.34;;;8.99;100.00
13968;BME280;39536;52.198;9.920;2023-04-20T08:43:13;101127.28;;;9.00;100.00
13968;BME280;39536;52.198;9.920;2023-04-20T08:45:42;101129.19;;;8.88;100.00
13968;BME280;39536;52.198;9.920;2023-04-20T08:48:12;101138.78;;;8.86;100.00
13968;BME280;39536;52.198;9.920;2023-04-20T08:50:41;101132.38;;;9.05;100.00
13968;BME280;39536;52.198;9.920;2023-04-20T08:53:07;101143.69;;;9.04;100.00
13968;BME280;39536;52.198;9.920;2023-04-20T08:55:34;101142.19;;;8.88;100.00
13968;BME280;39536;52.198;9.920;2023-04-20T08:58:01;101133.13;;;9.12;100.00
13968;BME280;39536;52.198;9.920;2023-04-20T09:00:28;101141.75;;;9.15;100.00
13968;BME280;39536;52.198;9.920;2023-04-20T09:02:55;101134.56;;;9.30;100.00
13968;BME280;39536;52.198;9.920;2023-04-20T09:05:24;101131.34;;;9.63;100.00
13968;BME280;39536;52.198;9.920;2023-04-20T09:07:53;101123.28;;;9.77;100.00
13968;BME280;39536;52.198;9.920;2023-04-20T09:10:21;101126.53;;;9.87;100.00
13968;BME280;39536;52.198;9.920;2023-04-20T09:12:49;101128.56;;;10.14;100.00
13968;BME280;39536;52.198;9.920;2023-04-20T09:15:26;101131.97;;;10.18;100.00
13968;BME280;39536;52.198;9.920;2023-04-20T09:17:54;101135.72;;;10.06;100.00
13968;BME280;39536;52.198;9.920;2023-04-20T09:20:28;101135.06;;;9.93;100.00
13968;BME280;39536;52.198;9.920;2023-04-20T09:22:56;101137.84;;;9.84;100.00
13968;BME280;39536;52.198;9.920;2023-04-20T09:25:24;101138.19;;;9.69;100.00
13968;BME280;39536;52.198;9.920;2023-04-20T09:27:56;101136.56;;;9.63;100.00
13968;BME280;39536;52.198;9.920;2023-04-20T09:30:23;101138.44;;;9.55;100.00
13968;BME280;39536;52.198;9.920;2023-04-20T09:33:00;101141.19;;;9.46;100.00
13968;BME280;39536;52.198;9.920;2023-04-20T09:35:26;101132.44;;;9.52;100.00
13968;BME280;39536;52.198;9.920;2023-04-20T09:37:53;101139.28;;;9.56;100.00
13968;BME280;39536;52.198;9.920;2023-04-20T09:40:23;101136.94;;;9.42;100.00
13968;BME280;39536;52.198;9.920;2023-04-20T09:42:52;101131.59;;;9.51;100.00
13968;BME280;39536;52.198;9.920;2023-04-20T09:45:20;101135.59;;;9.67;100.00
13968;BME280;39536;52.198;9.920;2023-04-20T09:47:47;101134.16;;;9.98;100.00
13968;BME280;39536;52.198;9.920;2023-04-20T09:50:15;101131.81;;;10.27;100.00
13968;BME280;39536;52.198;9.920;2023-04-20T09:52:42;101139.13;;;10.49;100.00
13968;BME280;39536;52.198;9.920;2023-04-20T09:55:09;101138.25;;;10.50;100.00
13968;BME280;39536;52.198;9.920;2023-04-20T09:57:38;101130.88;;;10.30;100.00
13968;BME280;39536;52.198;9.920;2023-04-20T10:00:06;101132.81;;;10.18;100.00
13968;BME280;39536;52.198;9.920;2023-04-20T10:02:35;101133.56;;;10.27;100.00
13968;BME280;39536;52.198;9.920;2023-04-20T10:05:02;101136.84;;;10.35;100.00
13968;BME280;39536;52.198;9.920;2023-04-20T10:07:30;101136.44;;;10.53;100.00
13968;BME280;39536;52.198;9.920;2023-04-20T10:10:08;101130.34;;;10.53;100.00
13968;BME280;39536;52.198;9.920;2023-04-20T10:12:51;101134.69;;;10.54;100.00
13968;BME280;39536;52.198;9.920;2023-04-20T10:15:18;101137.38;;;10.49;100.00
13968;BME280;39536;52.198;9.920;2023-04-20T10:17:46;101141.16;;;10.37;100.00
13968;BME280;39536;52.198;9.920;2023-04-20T10:20:20;101141.38;;;10.27;100.00
13968;BME280;39536;52.198;9.920;2023-04-20T10:22:48;101137.03;;;10.26;100.00
13968;BME280;39536;52.198;9.920;2023-04-20T10:25:17;101144.66;;;10.35;100.00
13968;BME280;39536;52.198;9.920;2023-04-20T10:27:57;101141.81;;;10.46;100.00
13968;BME280;39536;52.198;9.920;2023-04-20T10:30:24;101137.25;;;10.55;100.00
13968;BME280;39536;52.198;9.920;2023-04-20T10:33:04;101135.06;;;10.76;100.00
13968;BME280;39536;52.198;9.920;2023-04-20T10:35:43;101128.13;;;10.75;100.00
13968;BME280;39536;52.198;9.920;2023-04-20T10:38:10;101128.09;;;10.76;100.00
13968;BME280;39536;52.198;9.920;2023-04-20T10:40:37;101131.88;;;10.63;100.00
13968;BME280;39536;52.198;9.920;2023-04-20T10:43:16;101134.78;;;10.51;100.00
13968;BME280;39536;52.198;9.920;2023-04-20T10:45:43;101133.94;;;10.49;100.00
13968;BME280;39536;52.198;9.920;2023-04-20T10:48:10;101129.28;;;10.61;100.00
13968;BME280;39536;52.198;9.920;2023-04-20T10:50:38;101134.63;;;10.57;100.00
13968;BME280;39536;52.198;9.920;2023-04-20T10:53:05;101128.44;;;10.62;100.00
13968;BME280;39536;52.198;9.920;2023-04-20T10:55:31;101132.91;;;10.56;100.00
13968;BME280;39536;52.198;9.920;2023-04-20T10:57:58;101142.97;;;10.71;100.00
13968;BME280;39536;52.198;9.920;2023-04-20T11:00:27;101135.78;;;10.81;100.00
13968;BME280;39536;52.198;9.920;2023-04-20T11:02:55;101137.53;;;10.80;100.00
13968;BME280;39536;52.198;9.920;2023-04-20T11:05:24;101133.06;;;10.85;100.00
13968;BME280;39536;52.198;9.920;2023-04-20T11:07:51;101135.78;;;10.81;100.00
13968;BME280;39536;52.198;9.920;2023-04-20T11:10:18;101139.44;;;10.74;100.00
13968;BME280;39536;52.198;9.920;2023-04-20T11:12:46;101129.56;;;10.86;100.00
13968;BME280;39536;52.198;9.920;2023-04-20T11:15:12;101131.09;;;10.97;100.00
13968;BME280;39536;52.198;9.920;2023-04-20T11:17:42;101125.81;;;10.98;100.00
13968;BME280;39536;52.198;9.920;2023-04-20T11:20:11;101129.97;;;11.05;100.00
13968;BME280;39536;52.198;9.920;2023-04-20T11:22:40;101126.09;;;10.88;100.00
13968;BME280;39536;52.198;9.920;2023-04-20T11:25:08;101130.47;;;10.85;100.00
13968;BME280;39536;52.198;9.920;2023-04-20T11:27:36;101121.59;;;10.93;100.00
13968;BME280;39536;52.198;9.920;2023-04-20T11:30:05;101116.53;;;10.86;100.00
13968;BME280;39536;52.198;9.920;2023-04-20T11:32:33;101120.75;;;10.92;100.00
13968;BME280;39536;52.198;9.920;2023-04-20T11:35:03;101110.88;;;11.05;100.00
13968;BME280;39536;52.198;9.920;2023-04-20T11:37:32;101107.13;;;11.15;100.00
13968;BME280;39536;52.198;9.920;2023-04-20T11:39:59;101101.69;;;11.55;100.00
13968;BME280;39536;52.198;9.920;2023-04-20T11:42:26;101094.41;;;11.99;100.00
13968;BME280;39536;52.198;9.920;2023-04-20T11:44:53;101100.38;;;12.33;100.00
13968;BME280;39536;52.198;9.920;2023-04-20T11:47:19;101085.75;;;12.82;100.00
13968;BME280;39536;52.198;9.920;2023-04-20T11:49:46;101078.97;;;13.28;100.00
13968;BME280;39536;52.198;9.920;2023-04-20T11:52:14;101072.69;;;13.57;100.00
13968;BME280;39536;52.198;9.920;2023-04-20T11:54:40;101073.84;;;13.73;100.00
13968;BME280;39536;52.198;9.920;2023-04-20T11:57:07;101080.66;;;14.01;100.00
13968;BME280;39536;52.198;9.920;2023-04-20T11:59:33;101079.53;;;14.30;100.00
13968;BME280;39536;52.198;9.920;2023-04-20T12:02:00;101085.19;;;14.65;100.00
13968;BME280;39536;52.198;9.920;2023-04-20T12:04:28;101085.19;;;14.65;95.83
13968;BME280;39536;52.198;9.920;2023-04-20T12:06:55;101077.34;;;14.63;97.24
13968;BME280;39536;52.198;9.920;2023-04-20T12:09:25;101075.16;;;14.30;97.15
13968;BME280;39536;52.198;9.920;2023-04-20T12:11:52;101071.84;;;14.03;99.00
13968;BME280;39536;52.198;9.920;2023-04-20T12:14:19;101074.97;;;13.66;99.60
13968;BME280;39536;52.198;9.920;2023-04-20T12:16:45;101067.97;;;13.43;100.00
13968;BME280;39536;52.198;9.920;2023-04-20T12:19:12;101084.78;;;13.36;100.00
13968;BME280;39536;52.198;9.920;2023-04-20T12:21:38;101072.75;;;13.05;100.00
13968;BME280;39536;52.198;9.920;2023-04-20T12:24:05;101070.47;;;12.96;100.00
13968;BME280;39536;52.198;9.920;2023-04-20T12:26:33;101070.97;;;12.81;100.00
13968;BME280;39536;52.198;9.920;2023-04-20T12:29:01;101063.03;;;12.84;100.00
13968;BME280;39536;52.198;9.920;2023-04-20T12:31:27;101053.56;;;12.80;100.00
13968;BME280;39536;52.198;9.920;2023-04-20T12:33:54;101058.16;;;12.98;100.00
13968;BME280;39536;52.198;9.920;2023-04-20T12:36:21;101053.38;;;13.36;100.00
13968;BME280;39536;52.198;9.920;2023-04-20T12:38:49;101044.75;;;13.34;100.00
13968;BME280;39536;52.198;9.920;2023-04-20T12:41:16;101055.50;;;13.50;100.00
13968;BME280;39536;52.198;9.920;2023-04-20T12:43:44;101055.63;;;13.47;100.00
13968;BME280;39536;52.198;9.920;2023-04-20T12:46:10;101050.44;;;13.45;100.00
13968;BME280;39536;52.198;9.920;2023-04-20T12:48:37;101050.78;;;13.59;100.00
13968;BME280;39536;52.198;9.920;2023-04-20T12:51:03;101052.31;;;13.89;100.00